Time;durP1;ratioP1;P1;durP2;ratioP2;P2;SDS_P1;SDS_P2;PMS_P1;PMS_P2;Temp;Humidity;BMP_temperature;BMP_pressure;BME280_temperature;BME280_humidity;BME280_pressure;Samples;Min_cycle;Max_cycle;Signal;HPM_P1;HPM_P2
2023/04/22 00:00:05;;;;;;;0.98;0.90;;;8.80;99.90;;;;;;4972142;28;20457;-75
2023/04/22 00:02:32;;;;;;;1.65;1.20;;;8.80;99.90;;;;;;4982073;28;20452;-75
2023/04/22 00:05:00;;;;;;;2.78;1.33;;;8.70;99.90;;;;;;4983354;28;20745;-75
2023/04/22 00:07:27;;;;;;;1.33;1.00;;;8.70;99.90;;;;;;4985391;28;20448;-75
2023/04/22 00:09:54;;;;;;;1.23;1.03;;;8.80;99.90;;;;;;4985614;28;20447;-75
2023/04/22 00:12:21;;;;;;;8.85;1.60;;;8.80;99.90;;;;;;4982891;28;20434;-75
2023/04/22 00:14:48;;;;;;;1.77;1.50;;;8.80;99.90;;;;;;4982378;28;20977;-75
2023/04/22 00:17:14;;;;;;;1.77;1.63;;;8.70;99.90;;;;;;4985009;28;20441;-75
2023/04/22 00:19:47;;;;;;;1.77;1.67;;;8.70;99.90;;;;;;4969385;28;20525;-75
2023/04/22 00:22:14;;;;;;;2.42;1.35;;;8.70;99.90;;;;;;4981554;28;22075;-75
2023/04/22 00:24:41;;;;;;;2.47;1.80;;;8.80;99.90;;;;;;4984710;28;20436;-75
2023/04/22 00:27:10;;;;;;;3.05;1.40;;;8.90;99.90;;;;;;4983728;28;20432;-75
2023/04/22 00:29:37;;;;;;;1.88;1.38;;;9.00;99.90;;;;;;4981286;28;20980;-75
2023/04/22 00:32:04;;;;;;;1.63;1.55;;;9.10;99.90;;;;;;4984543;28;20440;-75
2023/04/22 00:34:31;;;;;;;2.80;1.85;;;9.20;99.90;;;;;;4983801;28;20438;-75
2023/04/22 00:36:59;;;;;;;2.10;1.58;;;9.30;99.90;;;;;;4985291;28;20939;-75
2023/04/22 00:39:25;;;;;;;2.60;1.38;;;9.30;99.90;;;;;;4965891;28;20446;-75
2023/04/22 00:41:54;;;;;;;1.90;1.80;;;9.30;99.90;;;;;;4984180;28;20817;-75
2023/04/22 00:44:21;;;;;;;3.70;1.80;;;9.40;99.90;;;;;;4979784;28;20457;-75
2023/04/22 00:46:49;;;;;;;1.70;1.60;;;9.30;99.90;;;;;;4984102;28;21075;-71
2023/04/22 00:49:17;;;;;;;1.98;1.88;;;9.30;99.90;;;;;;4981875;28;20448;-71
2023/04/22 00:51:43;;;;;;;3.87;1.43;;;9.30;99.90;;;;;;4985575;28;20578;-70
2023/04/22 00:54:12;;;;;;;3.40;2.03;;;9.20;99.90;;;;;;4982407;28;20438;-70
2023/04/22 00:56:39;;;;;;;1.40;1.20;;;9.20;99.90;;;;;;4969625;28;20552;-70
2023/04/22 00:59:08;;;;;;;1.05;0.93;;;9.20;99.90;;;;;;4977111;28;20884;-71
2023/04/22 01:01:35;;;;;;;1.33;1.25;;;9.10;99.90;;;;;;4980141;28;20464;-71
2023/04/22 01:04:03;;;;;;;3.03;1.98;;;9.10;99.90;;;;;;4978731;28;20451;-71
2023/04/22 01:06:31;;;;;;;1.60;1.10;;;9.10;99.90;;;;;;4983246;28;20448;-71
2023/04/22 01:08:58;;;;;;;3.13;1.52;;;9.10;99.90;;;;;;4965250;28;20448;-70
2023/04/22 01:11:25;;;;;;;1.83;1.52;;;9.10;99.90;;;;;;4986866;28;20437;-71
2023/04/22 01:13:52;;;;;;;2.63;1.33;;;9.00;99.90;;;;;;4984329;28;20461;-71
2023/04/22 01:16:19;;;;;;;1.17;1.15;;;8.80;99.90;;;;;;4968417;28;20436;-71
2023/04/22 01:18:46;;;;;;;2.00;1.90;;;8.80;99.90;;;;;;4983124;28;20804;-70
2023/04/22 01:21:13;;;;;;;1.33;1.20;;;8.70;99.90;;;;;;4980690;28;20718;-70
2023/04/22 01:23:41;;;;;;;1.90;1.40;;;8.80;99.90;;;;;;4981446;28;20448;-70
2023/04/22 01:26:07;;;;;;;1.42;1.33;;;8.70;99.90;;;;;;4985689;28;20428;-70
2023/04/22 01:28:37;;;;;;;0.90;0.90;;;8.70;99.90;;;;;;4987966;28;20448;-70
2023/04/22 01:31:04;;;;;;;1.73;1.63;;;8.70;99.90;;;;;;4971090;28;20446;-70
2023/04/22 01:33:32;;;;;;;3.13;1.17;;;8.70;99.90;;;;;;4984058;28;22180;-70
2023/04/22 01:36:00;;;;;;;1.52;1.40;;;8.70;99.90;;;;;;4987121;28;20443;-70
2023/04/22 01:38:27;;;;;;;0.90;0.90;;;8.80;99.90;;;;;;4968634;28;20845;-70
2023/04/22 01:40:57;;;;;;;1.80;1.70;;;8.80;99.90;;;;;;4984115;28;20442;-70
2023/04/22 01:43:24;;;;;;;0.70;0.70;;;8.80;99.90;;;;;;4990054;28;20428;-70
2023/04/22 01:45:51;;;;;;;1.55;1.45;;;8.80;99.90;;;;;;4987991;28;20436;-70
2023/04/22 01:48:18;;;;;;;1.17;1.08;;;8.90;99.90;;;;;;5004501;28;20440;-70
2023/04/22 01:50:44;;;;;;;2.73;1.30;;;8.90;99.90;;;;;;5006385;28;20533;-70
2023/04/22 01:53:11;;;;;;;1.05;1.05;;;8.90;99.90;;;;;;5001935;28;20537;-70
2023/04/22 01:55:42;;;;;;;1.48;1.38;;;8.90;99.90;;;;;;5002569;28;20436;-70
2023/04/22 01:58:08;;;;;;;2.50;1.52;;;8.90;99.90;;;;;;4991188;28;20426;-70
2023/04/22 02:00:35;;;;;;;4.18;1.48;;;8.90;99.90;;;;;;5003721;28;21222;-70
2023/04/22 02:03:02;;;;;;;1.50;1.40;;;8.90;99.90;;;;;;5005282;28;20457;-70
2023/04/22 02:05:29;;;;;;;3.92;1.77;;;8.80;99.90;;;;;;5001470;28;20444;-70
2023/04/22 02:07:56;;;;;;;1.40;1.30;;;8.70;99.90;;;;;;5004123;28;20458;-70
2023/04/22 02:10:22;;;;;;;1.60;1.48;;;8.60;99.90;;;;;;5004835;28;20432;-70
2023/04/22 02:12:52;;;;;;;1.65;1.55;;;8.60;99.90;;;;;;5004757;28;20470;-70
2023/04/22 02:15:19;;;;;;;1.63;1.52;;;8.50;99.90;;;;;;5005018;28;20439;-70
2023/04/22 02:17:46;;;;;;;1.17;1.10;;;8.50;99.90;;;;;;5002524;28;20445;-70
2023/04/22 02:20:12;;;;;;;1.70;1.10;;;8.50;99.90;;;;;;5005811;28;20449;-70
2023/04/22 02:22:41;;;;;;;1.80;1.40;;;8.50;99.90;;;;;;5003224;28;20514;-70
2023/04/22 02:25:09;;;;;;;1.63;1.27;;;8.40;99.90;;;;;;5002484;28;20465;-74
2023/04/22 02:27:36;;;;;;;4.13;1.58;;;8.40;99.90;;;;;;5003217;28;20931;-74
2023/04/22 02:30:03;;;;;;;1.50;1.02;;;8.40;99.90;;;;;;5005573;28;20978;-75
2023/04/22 02:32:30;;;;;;;1.10;1.00;;;8.40;99.90;;;;;;5000725;28;20494;-74
2023/04/22 02:34:58;;;;;;;2.20;1.60;;;8.30;99.90;;;;;;5003491;28;20433;-74
2023/04/22 02:37:25;;;;;;;1.00;1.00;;;8.30;99.90;;;;;;5003714;28;20450;-74
2023/04/22 02:39:52;;;;;;;0.90;0.90;;;8.30;99.90;;;;;;4987468;28;20994;-74
2023/04/22 02:42:18;;;;;;;1.13;0.93;;;8.30;99.90;;;;;;5006132;28;20431;-74
2023/04/22 02:44:45;;;;;;;2.40;1.35;;;8.30;99.90;;;;;;4993294;28;20962;-74
2023/04/22 02:47:15;;;;;;;1.87;1.50;;;8.30;99.90;;;;;;4988200;28;20470;-74
2023/04/22 02:49:42;;;;;;;1.48;1.38;;;8.30;99.90;;;;;;4984185;28;20452;-74
2023/04/22 02:52:09;;;;;;;1.60;1.50;;;8.30;99.90;;;;;;5003693;28;20540;-75
2023/04/22 02:54:35;;;;;;;0.88;0.88;;;8.30;99.90;;;;;;5003901;28;20432;-75
2023/04/22 02:57:02;;;;;;;1.70;0.87;;;8.20;99.90;;;;;;4989265;28;20428;-75
2023/04/22 02:59:30;;;;;;;1.23;1.23;;;8.10;99.90;;;;;;5003059;28;20446;-75
2023/04/22 03:01:57;;;;;;;3.08;1.05;;;8.20;99.90;;;;;;5003209;28;20445;-75
2023/04/22 03:04:24;;;;;;;0.83;0.83;;;8.10;99.90;;;;;;5001550;28;20547;-74
2023/04/22 03:06:55;;;;;;;1.50;1.38;;;8.10;99.90;;;;;;5005554;28;20431;-74
2023/04/22 03:09:21;;;;;;;1.10;1.10;;;8.00;99.90;;;;;;4987841;28;20486;-74
2023/04/22 03:11:48;;;;;;;1.30;1.00;;;7.90;99.90;;;;;;5002136;28;20437;-75
2023/04/22 03:14:14;;;;;;;1.13;1.00;;;7.90;99.90;;;;;;5002687;28;20436;-74
2023/04/22 03:16:44;;;;;;;1.90;1.13;;;7.90;99.90;;;;;;5004619;28;20424;-70
2023/04/22 03:19:10;;;;;;;1.48;1.10;;;7.80;99.90;;;;;;5004000;28;20542;-70
2023/04/22 03:21:37;;;;;;;1.08;0.93;;;7.80;99.90;;;;;;5002956;28;20432;-71
2023/04/22 03:24:04;;;;;;;1.90;1.20;;;7.70;99.90;;;;;;5004046;28;20531;-71
2023/04/22 03:26:31;;;;;;;1.35;0.85;;;7.70;99.90;;;;;;4987626;28;20436;-70
2023/04/22 03:28:58;;;;;;;1.83;1.10;;;7.70;99.90;;;;;;4999734;28;20966;-71
2023/04/22 03:31:24;;;;;;;1.08;1.02;;;7.70;99.90;;;;;;5004169;28;20448;-70
2023/04/22 03:33:51;;;;;;;1.13;1.10;;;7.60;99.90;;;;;;4984838;28;20482;-71
2023/04/22 03:36:18;;;;;;;3.23;1.00;;;7.60;99.90;;;;;;4986881;28;20432;-71
2023/04/22 03:38:45;;;;;;;1.30;1.25;;;7.50;99.90;;;;;;5000762;28;20436;-71
2023/04/22 03:41:12;;;;;;;1.02;1.00;;;7.40;99.90;;;;;;5001654;28;20795;-71
2023/04/22 03:43:42;;;;;;;1.85;0.82;;;7.30;99.90;;;;;;5004152;28;20436;-71
2023/04/22 03:46:09;;;;;;;1.70;1.10;;;7.40;99.90;;;;;;5001892;28;20444;-70
2023/04/22 03:48:38;;;;;;;0.93;0.93;;;7.30;99.90;;;;;;5000400;28;20646;-70
2023/04/22 03:51:05;;;;;;;1.27;0.98;;;7.30;99.90;;;;;;5002032;28;20443;-71
2023/04/22 03:53:32;;;;;;;1.20;1.10;;;7.30;99.90;;;;;;5002238;28;20809;-71
2023/04/22 03:55:58;;;;;;;1.27;1.17;;;7.40;99.90;;;;;;4988204;28;20489;-70
2023/04/22 03:58:25;;;;;;;1.00;1.00;;;7.40;99.90;;;;;;5003527;28;20444;-70
2023/04/22 04:00:51;;;;;;;1.35;1.25;;;7.50;99.90;;;;;;5002576;28;20443;-71
2023/04/22 04:03:18;;;;;;;0.90;0.90;;;7.50;99.90;;;;;;5003697;28;20434;-70
2023/04/22 04:05:45;;;;;;;1.17;0.90;;;7.60;99.90;;;;;;5002316;28;20514;-70
2023/04/22 04:08:12;;;;;;;0.90;0.82;;;7.50;99.90;;;;;;5002246;28;20506;-70
2023/04/22 04:10:40;;;;;;;1.05;0.80;;;7.50;99.90;;;;;;5001985;28;20444;-75
2023/04/22 04:13:07;;;;;;;0.65;0.65;;;7.50;99.90;;;;;;5004535;28;20810;-75
2023/04/22 04:15:35;;;;;;;0.85;0.85;;;7.40;99.90;;;;;;5002872;28;20433;-75
2023/04/22 04:18:03;;;;;;;0.65;0.65;;;7.40;99.90;;;;;;5001876;28;20444;-75
2023/04/22 04:20:30;;;;;;;0.60;0.60;;;7.30;99.90;;;;;;5001880;28;21021;-75
2023/04/22 04:22:56;;;;;;;1.10;1.00;;;7.30;99.90;;;;;;4986389;28;21042;-75
2023/04/22 04:25:23;;;;;;;0.80;0.77;;;7.30;99.90;;;;;;4985228;28;20436;-75
2023/04/22 04:27:51;;;;;;;0.80;0.80;;;7.20;99.90;;;;;;5003209;28;20439;-75
2023/04/22 04:30:20;;;;;;;0.70;0.70;;;7.10;99.90;;;;;;4984726;28;20440;-75
2023/04/22 04:32:47;;;;;;;1.02;1.02;;;7.10;99.90;;;;;;4984795;28;20448;-75
2023/04/22 04:35:14;;;;;;;1.00;0.93;;;7.00;99.90;;;;;;5004773;28;20501;-75
2023/04/22 04:37:45;;;;;;;1.10;1.10;;;7.00;99.90;;;;;;4988606;28;20983;-75
2023/04/22 04:40:12;;;;;;;0.65;0.65;;;7.00;99.90;;;;;;5001081;28;20442;-75
2023/04/22 04:42:42;;;;;;;0.93;0.93;;;6.90;99.90;;;;;;5003921;28;20792;-73
2023/04/22 04:45:12;;;;;;;0.77;0.55;;;6.80;99.90;;;;;;4985166;28;20699;-74
2023/04/22 04:47:38;;;;;;;0.70;0.70;;;6.80;99.90;;;;;;4999499;28;20436;-74
2023/04/22 04:50:06;;;;;;;0.80;0.73;;;6.90;99.90;;;;;;4996931;28;20439;-74
2023/04/22 04:52:32;;;;;;;0.93;0.93;;;6.90;99.90;;;;;;5003388;28;20450;-74
2023/04/22 04:55:01;;;;;;;1.40;1.30;;;7.00;99.90;;;;;;4986017;28;21115;-70
2023/04/22 04:57:28;;;;;;;1.08;0.90;;;7.10;99.90;;;;;;5000405;28;20949;-70
2023/04/22 04:59:55;;;;;;;1.30;1.20;;;7.20;99.90;;;;;;4998970;28;20448;-71
2023/04/22 05:02:21;;;;;;;1.33;1.00;;;7.30;99.90;;;;;;4987190;28;20435;-69
2023/04/22 05:04:49;;;;;;;0.68;0.68;;;7.40;99.90;;;;;;4997595;28;21052;-70
2023/04/22 05:07:15;;;;;;;0.80;0.80;;;7.50;99.90;;;;;;4997707;28;20524;-69
2023/04/22 05:09:44;;;;;;;1.25;0.80;;;7.60;99.90;;;;;;4997826;28;20890;-70
2023/04/22 05:12:11;;;;;;;1.40;1.30;;;7.70;99.90;;;;;;4999743;28;22147;-69
2023/04/22 05:14:39;;;;;;;1.60;1.00;;;7.70;99.90;;;;;;4999865;28;20435;-74
2023/04/22 05:17:08;;;;;;;0.82;0.82;;;7.80;99.90;;;;;;5001568;28;20487;-73
2023/04/22 05:19:35;;;;;;;1.10;1.00;;;7.80;99.90;;;;;;5003426;28;20448;-73
2023/04/22 05:22:02;;;;;;;0.50;0.50;;;7.90;99.90;;;;;;5002133;28;20485;-74
2023/04/22 05:24:29;;;;;;;1.50;1.25;;;7.90;99.90;;;;;;5005154;28;20442;-74
2023/04/22 05:26:56;;;;;;;0.87;0.87;;;7.90;99.90;;;;;;4990795;28;20434;-73
2023/04/22 05:29:23;;;;;;;1.00;1.00;;;8.00;99.90;;;;;;5003763;28;20443;-73
2023/04/22 05:31:49;;;;;;;0.95;0.85;;;8.10;99.90;;;;;;4999700;28;20450;-74
2023/04/22 05:34:16;;;;;;;2.40;0.93;;;8.20;99.90;;;;;;4982614;28;20442;-74
2023/04/22 05:36:45;;;;;;;1.27;1.00;;;8.40;99.90;;;;;;5000645;28;20437;-74
2023/04/22 05:39:11;;;;;;;0.80;0.75;;;8.50;99.90;;;;;;4994609;28;20443;-73
2023/04/22 05:41:38;;;;;;;1.08;0.98;;;8.60;99.90;;;;;;4987128;28;21153;-74
2023/04/22 05:44:05;;;;;;;1.60;0.85;;;8.70;99.90;;;;;;4979715;28;20453;-74
2023/04/22 05:46:31;;;;;;;1.77;1.27;;;8.80;99.90;;;;;;5000494;28;20458;-74
2023/04/22 05:48:58;;;;;;;1.00;0.90;;;8.80;99.90;;;;;;4998513;28;20444;-74
2023/04/22 05:51:25;;;;;;;0.97;0.97;;;9.00;99.90;;;;;;5000139;28;20462;-73
2023/04/22 05:53:55;;;;;;;0.95;0.95;;;9.00;99.90;;;;;;4987487;28;21927;-74
2023/04/22 05:56:22;;;;;;;0.90;0.90;;;9.30;99.90;;;;;;5000757;28;20653;-74
2023/04/22 05:58:48;;;;;;;1.20;1.20;;;9.40;99.90;;;;;;4983660;28;21200;-74
2023/04/22 06:01:15;;;;;;;0.77;0.77;;;9.40;99.90;;;;;;4998790;28;20440;-74
2023/04/22 06:03:42;;;;;;;1.33;1.10;;;9.40;99.90;;;;;;4984808;28;20911;-74
2023/04/22 06:06:09;;;;;;;1.30;1.20;;;9.40;99.90;;;;;;4999605;28;20459;-74
2023/04/22 06:08:35;;;;;;;2.10;1.30;;;9.60;99.90;;;;;;4999042;28;20933;-74
2023/04/22 06:11:02;;;;;;;1.15;1.15;;;9.70;99.90;;;;;;4984339;28;20435;-74
2023/04/22 06:13:29;;;;;;;2.10;1.30;;;9.90;99.90;;;;;;5001788;28;20865;-74
2023/04/22 06:15:56;;;;;;;0.90;0.90;;;10.20;99.90;;;;;;4985932;28;20529;-74
2023/04/22 06:18:22;;;;;;;1.40;1.27;;;10.50;99.90;;;;;;4988065;28;20495;-74
2023/04/22 06:20:53;;;;;;;1.45;1.35;;;10.90;99.90;;;;;;4984980;28;20536;-74
2023/04/22 06:23:20;;;;;;;1.00;1.00;;;11.30;99.90;;;;;;4986679;28;20444;-75
2023/04/22 06:25:47;;;;;;;9.03;1.43;;;11.60;99.90;;;;;;5001959;28;20444;-75
2023/04/22 06:28:13;;;;;;;1.50;1.50;;;11.70;99.90;;;;;;4999246;28;20454;-74
2023/04/22 06:30:40;;;;;;;5.00;1.10;;;11.80;99.90;;;;;;5002848;28;20435;-74
2023/04/22 06:33:11;;;;;;;1.75;1.65;;;12.00;99.90;;;;;;4983907;28;20433;-73
2023/04/22 06:35:38;;;;;;;1.42;1.00;;;12.20;99.90;;;;;;5005170;28;20442;-73
2023/04/22 06:38:08;;;;;;;1.27;1.17;;;12.10;99.90;;;;;;4986874;28;20457;-73
2023/04/22 06:40:36;;;;;;;1.10;1.10;;;12.10;99.90;;;;;;5001159;28;20492;-73
2023/04/22 06:43:03;;;;;;;1.73;1.20;;;12.30;99.90;;;;;;4984794;28;20507;-73
2023/04/22 06:45:30;;;;;;;1.00;1.00;;;12.90;99.90;;;;;;4984799;28;20447;-74
2023/04/22 06:47:57;;;;;;;1.70;1.60;;;13.60;99.90;;;;;;4984603;28;20974;-74
2023/04/22 06:50:24;;;;;;;1.95;1.52;;;14.40;99.90;;;;;;4996240;28;20489;-74
2023/04/22 06:52:52;;;;;;;1.58;1.48;;;15.30;99.90;;;;;;5000491;28;20441;-74
2023/04/22 06:55:19;;;;;;;1.63;1.52;;;15.90;99.90;;;;;;4999238;28;20931;-74
2023/04/22 06:57:46;;;;;;;1.67;1.58;;;16.60;99.90;;;;;;5002121;28;20476;-74
2023/04/22 07:00:13;;;;;;;1.48;1.23;;;17.30;99.90;;;;;;5002135;28;20430;-74
2023/04/22 07:02:40;;;;;;;0.90;0.90;;;17.90;99.90;;;;;;5000079;28;20433;-74
2023/04/22 07:05:07;;;;;;;2.00;1.67;;;18.00;99.90;;;;;;4983656;28;21425;-74
2023/04/22 07:07:34;;;;;;;1.00;1.00;;;18.30;99.90;;;;;;5003709;28;20438;-74
2023/04/22 07:10:01;;;;;;;3.75;1.42;;;18.20;99.90;;;;;;4986581;28;20426;-74
2023/04/22 07:12:28;;;;;;;2.45;1.13;;;17.60;99.90;;;;;;4985180;28;20448;-74
2023/04/22 07:14:57;;;;;;;2.10;1.20;;;17.50;99.90;;;;;;5002166;28;20443;-73
2023/04/22 07:17:24;;;;;;;1.40;1.30;;;17.80;99.90;;;;;;4997269;28;20878;-74
2023/04/22 07:19:50;;;;;;;1.45;1.40;;;17.70;99.90;;;;;;5001858;28;21185;-74
2023/04/22 07:22:17;;;;;;;1.70;1.60;;;18.00;99.90;;;;;;5000073;28;20451;-72
2023/04/22 07:24:44;;;;;;;1.40;1.30;;;18.10;99.90;;;;;;4984405;28;21218;-73
2023/04/22 07:27:12;;;;;;;1.57;1.40;;;18.10;99.90;;;;;;4999900;28;21140;-72
2023/04/22 07:29:39;;;;;;;1.45;1.35;;;18.40;99.90;;;;;;4998682;28;20454;-72
2023/04/22 07:32:08;;;;;;;1.25;1.25;;;18.80;99.90;;;;;;4985930;28;20472;-73
2023/04/22 07:34:35;;;;;;;1.15;1.05;;;18.70;99.90;;;;;;4997296;28;20436;-73
2023/04/22 07:37:02;;;;;;;1.35;1.25;;;18.90;99.90;;;;;;4999419;28;21058;-73
2023/04/22 07:39:28;;;;;;;0.98;0.93;;;18.70;99.90;;;;;;5001872;28;20502;-73
2023/04/22 07:41:55;;;;;;;1.73;1.55;;;18.50;99.90;;;;;;5000331;28;20585;-72
2023/04/22 07:44:24;;;;;;;2.20;1.35;;;18.30;99.90;;;;;;5000614;28;20440;-75
2023/04/22 07:46:51;;;;;;;1.50;1.40;;;17.80;99.90;;;;;;5001044;28;20486;-75
2023/04/22 07:49:19;;;;;;;1.33;1.23;;;17.70;99.90;;;;;;5002356;28;20453;-75
2023/04/22 07:51:47;;;;;;;1.63;1.50;;;18.00;99.90;;;;;;5002861;28;20447;-73
2023/04/22 07:54:13;;;;;;;1.60;1.50;;;18.60;99.90;;;;;;5002060;28;20471;-73
2023/04/22 07:56:41;;;;;;;1.50;1.40;;;18.90;99.90;;;;;;5001610;28;20811;-73
2023/04/22 07:59:09;;;;;;;1.33;1.23;;;19.50;99.90;;;;;;4990383;28;20958;-73
2023/04/22 08:01:36;;;;;;;2.70;1.60;;;19.80;99.90;;;;;;4986773;28;20427;-73
2023/04/22 08:04:02;;;;;;;1.67;1.58;;;20.10;99.90;;;;;;5001284;28;20432;-74
2023/04/22 08:06:30;;;;;;;2.27;1.23;;;20.40;99.90;;;;;;5003553;28;20438;-74
2023/04/22 08:08:57;;;;;;;1.40;1.40;;;20.90;99.90;;;;;;5001613;28;20787;-74
2023/04/22 08:11:24;;;;;;;2.17;1.40;;;21.40;99.90;;;;;;5002343;28;20429;-74
2023/04/22 08:13:50;;;;;;;3.05;1.45;;;20.90;99.90;;;;;;4999838;28;20961;-74
2023/04/22 08:16:21;;;;;;;1.48;1.48;;;21.20;99.90;;;;;;4996608;28;20437;-75
2023/04/22 08:18:48;;;;;;;2.70;1.67;;;20.70;99.90;;;;;;4993760;28;20949;-75
2023/04/22 08:21:15;;;;;;;1.73;1.60;;;20.30;99.90;;;;;;4996738;28;20440;-73
2023/04/22 08:23:42;;;;;;;2.22;1.80;;;20.30;99.90;;;;;;4998875;28;20879;-74
2023/04/22 08:26:13;;;;;;;1.40;1.30;;;20.40;99.90;;;;;;5001363;28;20449;-74
2023/04/22 08:28:41;;;;;;;1.40;1.25;;;19.80;99.90;;;;;;4996655;28;20489;-74
2023/04/22 08:31:11;;;;;;;0.88;0.88;;;20.20;99.90;;;;;;4999693;28;20626;-74
2023/04/22 08:33:41;;;;;;;1.33;1.30;;;20.00;99.90;;;;;;4996048;28;20446;-74
2023/04/22 08:36:12;;;;;;;1.20;1.05;;;20.40;99.90;;;;;;4997893;28;20803;-73
2023/04/22 08:38:38;;;;;;;1.50;1.40;;;20.50;99.90;;;;;;5002874;28;20451;-74
2023/04/22 08:41:06;;;;;;;1.52;1.42;;;20.30;99.90;;;;;;4994345;28;21002;-74
2023/04/22 08:43:33;;;;;;;1.90;1.60;;;20.40;99.90;;;;;;4999872;28;20427;-74
2023/04/22 08:46:02;;;;;;;1.57;1.47;;;19.90;99.90;;;;;;4985034;28;20514;-73
2023/04/22 08:48:29;;;;;;;1.90;1.80;;;19.30;99.90;;;;;;4999163;28;20942;-74
2023/04/22 08:50:57;;;;;;;1.80;1.70;;;19.40;99.90;;;;;;4996354;28;20436;-74
2023/04/22 08:53:23;;;;;;;2.15;1.63;;;19.30;99.90;;;;;;5000448;28;20439;-74
2023/04/22 08:55:51;;;;;;;1.90;1.50;;;19.40;99.90;;;;;;4998470;28;20443;-74
2023/04/22 08:58:18;;;;;;;1.80;1.70;;;19.60;99.90;;;;;;4999824;28;20435;-74
2023/04/22 09:00:44;;;;;;;1.42;1.42;;;19.40;99.90;;;;;;4998977;28;20427;-75
2023/04/22 09:03:14;;;;;;;1.42;1.33;;;19.50;99.90;;;;;;4998727;28;20440;-75
2023/04/22 09:05:43;;;;;;;3.10;2.10;;;19.50;99.90;;;;;;4999358;28;20435;-76
2023/04/22 09:08:10;;;;;;;1.75;1.65;;;19.80;99.90;;;;;;4999489;28;20434;-75
2023/04/22 09:10:38;;;;;;;2.88;2.05;;;19.90;99.90;;;;;;5000956;28;20470;-74
2023/04/22 09:13:06;;;;;;;1.80;1.70;;;20.20;99.90;;;;;;4997993;28;20436;-73
2023/04/22 09:15:35;;;;;;;2.00;1.90;;;20.60;99.90;;;;;;4999822;28;20527;-73
2023/04/22 09:18:04;;;;;;;1.80;1.70;;;20.70;99.90;;;;;;4997434;28;20439;-73
2023/04/22 09:20:31;;;;;;;5.13;1.95;;;20.70;99.90;;;;;;4997545;28;20494;-74
2023/04/22 09:23:04;;;;;;;1.45;1.35;;;20.90;99.90;;;;;;5000166;28;20450;-74
2023/04/22 09:25:33;;;;;;;1.83;1.73;;;20.40;99.90;;;;;;4996151;28;20491;-74
2023/04/22 09:28:02;;;;;;;2.70;1.55;;;20.00;99.90;;;;;;4999928;28;20435;-73
2023/04/22 09:30:34;;;;;;;1.65;1.42;;;20.40;99.90;;;;;;5000728;28;21024;-73
2023/04/22 09:33:05;;;;;;;2.47;1.40;;;20.70;99.90;;;;;;4998421;28;20439;-73
2023/04/22 09:35:37;;;;;;;1.25;1.17;;;21.20;99.90;;;;;;4997207;28;21025;-74
2023/04/22 09:38:09;;;;;;;1.60;1.50;;;21.00;99.90;;;;;;4999582;28;20965;-73
2023/04/22 09:40:39;;;;;;;2.00;1.90;;;20.90;99.90;;;;;;5000775;28;20520;-74
2023/04/22 09:43:07;;;;;;;1.80;1.70;;;21.10;99.90;;;;;;5002504;28;22390;-73
2023/04/22 09:45:39;;;;;;;1.42;1.10;;;21.50;99.90;;;;;;5002619;28;20450;-74
2023/04/22 09:48:14;;;;;;;1.20;1.00;;;22.00;99.90;;;;;;5009269;28;20436;-73
2023/04/22 09:50:47;;;;;;;1.30;1.30;;;22.00;99.90;;;;;;5004827;28;20435;-72
2023/04/22 09:53:16;;;;;;;1.00;1.00;;;22.20;99.90;;;;;;4986509;28;20595;-73
2023/04/22 09:55:50;;;;;;;0.85;0.82;;;22.30;99.90;;;;;;5005768;28;20775;-73
2023/04/22 09:58:20;;;;;;;1.30;1.20;;;22.40;99.90;;;;;;5022577;28;20479;-73
2023/04/22 10:00:49;;;;;;;1.60;1.27;;;22.20;99.90;;;;;;5027679;28;21067;-73
2023/04/22 10:03:17;;;;;;;1.10;1.10;;;21.80;99.90;;;;;;5010289;28;20430;-73
2023/04/22 10:05:44;;;;;;;1.10;1.08;;;21.50;99.90;;;;;;5022943;28;20826;-72
2023/04/22 10:08:13;;;;;;;0.90;0.90;;;20.90;99.90;;;;;;5011206;28;20805;-73
2023/04/22 10:10:42;;;;;;;0.82;0.82;;;20.40;99.90;;;;;;5008624;28;20446;-73
2023/04/22 10:13:09;;;;;;;1.30;1.20;;;20.60;99.90;;;;;;5016517;28;20492;-72
2023/04/22 10:15:48;;;;;;;1.10;1.00;;;20.50;99.90;;;;;;5010056;28;20917;-73
2023/04/22 10:18:25;;;;;;;0.75;0.75;;;21.00;99.90;;;;;;5009667;28;21050;-73
2023/04/22 10:20:54;;;;;;;0.77;0.77;;;21.60;99.90;;;;;;5026835;28;20437;-73
2023/04/22 10:23:23;;;;;;;0.98;0.98;;;22.40;99.90;;;;;;5003352;28;20448;-73
2023/04/22 10:25:54;;;;;;;1.00;1.00;;;22.30;99.90;;;;;;5020877;28;20476;-73
2023/04/22 10:28:23;;;;;;;0.73;0.73;;;22.60;99.90;;;;;;5027027;28;20449;-73
2023/04/22 10:30:50;;;;;;;0.75;0.75;;;23.20;99.90;;;;;;5009477;28;20466;-73
2023/04/22 10:33:20;;;;;;;0.63;0.63;;;23.80;99.90;;;;;;5001564;28;20436;-74
2023/04/22 10:36:07;;;;;;;0.50;0.50;;;23.90;99.90;;;;;;5018255;28;20430;-74
2023/04/22 10:39:01;;;;;;;0.80;0.80;;;23.50;99.90;;;;;;5023017;28;20466;-74
2023/04/22 10:41:37;;;;;;;1.00;0.90;;;24.00;99.90;;;;;;5021061;28;20435;-73
2023/04/22 10:44:07;;;;;;;0.70;0.70;;;24.30;99.90;;;;;;5018517;28;20447;-74
2023/04/22 10:46:41;;;;;;;0.70;0.70;;;24.10;99.90;;;;;;5019899;28;20436;-74
2023/04/22 10:49:11;;;;;;;2.70;1.02;;;24.10;99.90;;;;;;5012431;28;20519;-73
2023/04/22 10:51:59;;;;;;;1.13;0.85;;;24.00;99.60;;;;;;5026091;28;20442;-74
2023/04/22 10:54:26;;;;;;;0.63;0.63;;;24.40;99.80;;;;;;5029192;28;20431;-73
2023/04/22 10:57:00;;;;;;;0.60;0.60;;;24.80;99.90;;;;;;5029142;28;20514;-73
2023/04/22 10:59:28;;;;;;;0.88;0.88;;;24.70;98.30;;;;;;5029207;28;20435;-74
2023/04/22 11:02:00;;;;;;;1.27;0.80;;;25.00;98.70;;;;;;5005274;28;20486;-73
2023/04/22 11:04:27;;;;;;;0.70;0.70;;;25.00;98.90;;;;;;5001708;28;22521;-73
2023/04/22 11:07:19;;;;;;;0.60;0.60;;;24.10;98.90;;;;;;5007956;28;20451;-73
2023/04/22 11:09:49;;;;;;;4.20;0.90;;;24.10;98.80;;;;;;5007757;28;20528;-73
2023/04/22 11:12:34;;;;;;;0.70;0.70;;;23.90;97.80;;;;;;5007753;28;20445;-73
2023/04/22 11:15:08;;;;;;;2.03;0.83;;;24.50;99.30;;;;;;4987219;28;20494;-73
2023/04/22 11:17:43;;;;;;;0.45;0.45;;;24.90;96.50;;;;;;5003043;28;20941;-73
2023/04/22 11:20:11;;;;;;;0.57;0.57;;;24.90;95.50;;;;;;4987008;28;20448;-73
2023/04/22 11:22:41;;;;;;;0.60;0.60;;;24.50;96.70;;;;;;5005683;28;20436;-72
2023/04/22 11:25:11;;;;;;;0.65;0.65;;;24.70;95.80;;;;;;5010703;28;20440;-72
2023/04/22 11:27:39;;;;;;;0.90;0.50;;;24.60;95.10;;;;;;5031640;28;20464;-73
2023/04/22 11:30:14;;;;;;;0.50;0.50;;;23.90;94.50;;;;;;5029110;28;20442;-73
2023/04/22 11:32:49;;;;;;;0.57;0.57;;;23.20;94.20;;;;;;5025886;28;20792;-72
2023/04/22 11:35:33;;;;;;;1.00;0.70;;;23.20;95.80;;;;;;5003552;28;20436;-72
2023/04/22 11:38:04;;;;;;;0.68;0.57;;;23.40;95.50;;;;;;5021665;28;20437;-73
2023/04/22 11:40:40;;;;;;;0.52;0.52;;;23.70;96.20;;;;;;5010073;28;20512;-72
2023/04/22 11:43:12;;;;;;;0.77;0.50;;;24.00;95.60;;;;;;5027913;28;20858;-73
2023/04/22 11:45:39;;;;;;;0.52;0.52;;;24.00;95.00;;;;;;5024590;28;20439;-74
2023/04/22 11:48:07;;;;;;;0.70;0.70;;;23.90;95.60;;;;;;5009861;28;20522;-74
2023/04/22 11:50:40;;;;;;;0.57;0.57;;;24.10;95.80;;;;;;5019376;28;20437;-74
2023/04/22 11:53:17;;;;;;;1.30;0.80;;;24.10;95.00;;;;;;5015327;28;20991;-74
2023/04/22 11:55:46;;;;;;;0.60;0.60;;;23.90;95.40;;;;;;5005347;28;20891;-73
2023/04/22 11:58:27;;;;;;;0.73;0.73;;;24.40;96.00;;;;;;5023796;28;20433;-74
2023/04/22 12:00:58;;;;;;;0.52;0.52;;;24.30;94.80;;;;;;5022629;28;20659;-74
2023/04/22 12:03:27;;;;;;;0.43;0.43;;;24.00;94.70;;;;;;5034209;28;20427;-74
2023/04/22 12:05:57;;;;;;;0.70;0.70;;;24.10;95.50;;;;;;5010354;28;20439;-74
2023/04/22 12:08:46;;;;;;;0.57;0.57;;;24.60;95.30;;;;;;4988965;28;20783;-73
2023/04/22 12:11:13;;;;;;;1.65;0.90;;;24.90;94.40;;;;;;4982066;28;20435;-74
2023/04/22 12:13:45;;;;;;;0.80;0.68;;;24.50;94.50;;;;;;5005522;28;20435;-74
2023/04/22 12:16:17;;;;;;;0.80;0.50;;;24.50;94.50;;;;;;5002386;28;20445;-74
2023/04/22 12:18:50;;;;;;;0.70;0.70;;;24.70;94.20;;;;;;5003897;28;20441;-74
2023/04/22 12:21:23;;;;;;;0.40;0.40;;;24.70;94.00;;;;;;4986881;28;20436;-74
2023/04/22 12:23:51;;;;;;;0.50;0.50;;;24.90;94.20;;;;;;5004911;28;20561;-74
2023/04/22 12:26:25;;;;;;;0.40;0.40;;;24.30;93.40;;;;;;4988937;28;20439;-74
2023/04/22 12:28:57;;;;;;;0.55;0.55;;;24.40;93.50;;;;;;4990821;28;20438;-75
2023/04/22 12:31:25;;;;;;;0.60;0.52;;;25.00;94.80;;;;;;5001345;28;20933;-74
2023/04/22 12:33:54;;;;;;;0.70;0.70;;;25.00;93.00;;;;;;5000986;28;20439;-74
2023/04/22 12:36:22;;;;;;;0.45;0.45;;;25.10;92.60;;;;;;4988688;28;20803;-74
2023/04/22 12:38:50;;;;;;;0.50;0.50;;;25.30;93.20;;;;;;4998821;28;20505;-74
2023/04/22 12:41:22;;;;;;;0.75;0.73;;;25.20;93.10;;;;;;5002596;28;20423;-74
2023/04/22 12:43:49;;;;;;;0.50;0.50;;;25.10;93.10;;;;;;4986490;28;20443;-74
2023/04/22 12:46:16;;;;;;;0.70;0.65;;;25.30;93.80;;;;;;5001242;28;20448;-74
2023/04/22 12:48:42;;;;;;;0.60;0.60;;;25.30;93.40;;;;;;5002565;28;20436;-73
2023/04/22 12:51:09;;;;;;;0.50;0.50;;;24.90;92.80;;;;;;5000694;28;20442;-74
2023/04/22 12:53:36;;;;;;;0.60;0.60;;;23.90;92.40;;;;;;5003891;28;20443;-74
2023/04/22 12:56:03;;;;;;;0.60;0.60;;;23.70;93.10;;;;;;5003532;28;21035;-73
2023/04/22 12:58:32;;;;;;;0.90;0.57;;;23.20;93.10;;;;;;5001306;28;20427;-74